Main page
METAR-TAF:

METAR-TAF

Airports :

Pula Airport

Pula, Croatia

latitude: 44-54N, longitude: 013-55E, elevation: 63 m

Current weather observation

The report was made 34 minutes ago, at 07:00 UTC
Wind 14 kt from the East/Northeast
Temperature 16°C
Humidity 48%
Pressure 1029 hPa
Visibility 10 km or more
no clouds below 1500 m and no cumulonimbus

METAR: LDPL 190700Z 07014KT CAVOK 16/05 Q1029 NOSIG

Time: 09:34 (07:34 UTC)

Forecast

The report was made 38 minutes ago, at 06:56 UTC
Forecast valid from 19 at 06 UTC to 20 at 06 UTC
Wind 8 kt from the East/Northeast
Visibility 10 km or more
no clouds below 1500 m and no cumulonimbus
Temporary
from 19 at 07 UTC to 19 at 10 UTC
Wind 14 kt from the East/Northeast
Becoming
from 19 at 10 UTC to 19 at 12 UTC
Wind 8 kt from the West/Northwest
Becoming
from 19 at 17 UTC to 19 at 19 UTC
Wind 5 kt from the North/Northeast

TAF: LDPL 190656Z 1906/2006 06008KT CAVOK TX20/1913Z TN10/2004Z TEMPO 1907/1910 06014KT BECMG 1910/1912 29008KT BECMG 1917/1919 03005KT

Weather observations and forecasts of more than 4000 airports (METAR and TAF reports).

The available stations are represented by yellow and red dots on the map.

Hover mouse over dot to see the name of the station.

Then click to see weather observations and forecasts.

To change the map : click on the green buttons with a black cross to zoom in, on the green button with a dash to zoom out, or on the green arrows for adjacent maps.


METAR-TAF: